createdAt,value
2022-12-14T00:00:07.415Z,0
2022-12-14T00:03:08.109Z,0
2022-12-14T00:06:07.383Z,0
2022-12-14T00:09:07.430Z,0
2022-12-14T00:12:07.342Z,0
2022-12-14T00:15:07.383Z,0
2022-12-14T00:18:07.318Z,0
2022-12-14T00:21:07.398Z,0
2022-12-14T00:24:07.364Z,0
2022-12-14T00:27:07.383Z,0
2022-12-14T00:30:07.396Z,0
2022-12-14T00:33:07.286Z,0
2022-12-14T00:36:07.317Z,0
2022-12-14T00:39:07.393Z,0
2022-12-14T00:42:07.341Z,0
2022-12-14T00:45:07.429Z,0
2022-12-14T00:48:07.346Z,0
2022-12-14T00:51:07.398Z,0
2022-12-14T00:54:07.364Z,0
2022-12-14T00:57:07.431Z,0
2022-12-14T01:00:07.400Z,0
2022-12-14T01:03:07.359Z,0
2022-12-14T01:06:07.633Z,0
2022-12-14T01:09:07.323Z,0
2022-12-14T01:12:07.333Z,0
2022-12-14T01:15:07.461Z,0
2022-12-14T01:18:07.346Z,0
2022-12-14T01:21:07.355Z,0
2022-12-14T01:24:07.330Z,0
2022-12-14T01:27:07.353Z,0
2022-12-14T01:30:07.389Z,0
2022-12-14T01:33:07.394Z,0
2022-12-14T01:36:07.272Z,0
2022-12-14T01:39:07.351Z,0
2022-12-14T01:42:07.311Z,0
2022-12-14T01:45:07.426Z,0
2022-12-14T01:48:07.279Z,0
2022-12-14T01:51:07.384Z,0
2022-12-14T01:54:07.345Z,0
2022-12-14T01:57:07.404Z,0
2022-12-14T02:00:14.339Z,0
2022-12-14T02:03:08.124Z,0
2022-12-14T02:06:07.326Z,0
2022-12-14T02:09:07.282Z,0
2022-12-14T02:12:07.359Z,0
2022-12-14T02:15:07.337Z,0
2022-12-14T02:18:07.385Z,0
2022-12-14T02:21:07.347Z,0
2022-12-14T02:24:07.394Z,0
2022-12-14T02:27:07.417Z,0
2022-12-14T02:30:07.430Z,0
2022-12-14T02:33:07.332Z,0
2022-12-14T02:36:07.439Z,0
2022-12-14T02:39:07.397Z,0
2022-12-14T02:42:07.361Z,0
2022-12-14T02:45:07.406Z,0
2022-12-14T02:48:07.395Z,0
2022-12-14T02:51:07.441Z,0
2022-12-14T02:54:07.354Z,0
2022-12-14T02:57:07.322Z,0
2022-12-14T03:00:07.384Z,0
2022-12-14T03:03:07.963Z,0
2022-12-14T03:06:07.394Z,0
2022-12-14T03:09:07.413Z,0
2022-12-14T03:12:07.362Z,0
2022-12-14T03:15:07.597Z,0
2022-12-14T03:18:07.546Z,0
2022-12-14T03:21:07.428Z,0
2022-12-14T03:24:07.367Z,0
2022-12-14T03:27:07.373Z,0
2022-12-14T03:30:07.377Z,0
2022-12-14T03:33:07.356Z,0
2022-12-14T03:36:07.365Z,0
2022-12-14T03:39:07.364Z,0
2022-12-14T03:42:07.483Z,0
2022-12-14T03:45:07.432Z,0
2022-12-14T03:48:07.314Z,0
2022-12-14T03:51:07.373Z,0
2022-12-14T03:54:07.403Z,0
2022-12-14T03:57:07.372Z,0
2022-12-14T04:00:07.385Z,0
2022-12-14T04:03:07.836Z,0
2022-12-14T04:06:07.362Z,0
2022-12-14T04:09:07.330Z,0
2022-12-14T04:12:07.460Z,0
2022-12-14T04:15:07.412Z,0
2022-12-14T04:18:07.315Z,0
2022-12-14T04:21:07.407Z,0
2022-12-14T04:24:07.346Z,0
2022-12-14T04:27:07.335Z,0
2022-12-14T04:30:07.432Z,0
2022-12-14T04:33:07.345Z,0
2022-12-14T04:36:07.352Z,0
2022-12-14T04:39:07.380Z,0
2022-12-14T04:42:07.358Z,0
2022-12-14T04:45:07.345Z,0
2022-12-14T04:48:07.460Z,0
2022-12-14T04:51:07.411Z,0
2022-12-14T04:54:07.410Z,0
2022-12-14T04:57:07.379Z,0
2022-12-14T05:00:07.512Z,0
2022-12-14T05:03:07.739Z,0
2022-12-14T05:06:07.405Z,0
2022-12-14T05:09:07.382Z,0
2022-12-14T05:12:07.330Z,0
2022-12-14T05:15:07.377Z,0
2022-12-14T05:18:07.414Z,0
2022-12-14T05:21:07.305Z,0
2022-12-14T05:24:07.363Z,0
2022-12-14T05:27:07.400Z,0
2022-12-14T05:30:07.404Z,0
2022-12-14T05:33:07.333Z,0
2022-12-14T05:36:07.392Z,0
2022-12-14T05:39:07.322Z,0
2022-12-14T05:42:07.709Z,0
2022-12-14T05:45:07.532Z,0
2022-12-14T05:48:07.341Z,0
2022-12-14T05:51:07.426Z,0
2022-12-14T05:54:07.429Z,0
2022-12-14T05:57:07.348Z,0
2022-12-14T06:00:07.526Z,0
2022-12-14T06:03:07.682Z,0
2022-12-14T06:06:07.432Z,0
2022-12-14T06:09:07.290Z,0
2022-12-14T06:12:07.376Z,0
2022-12-14T06:15:07.327Z,0
2022-12-14T06:18:07.356Z,0
2022-12-14T06:21:07.388Z,0
2022-12-14T06:24:08.205Z,0
2022-12-14T06:27:07.375Z,0
2022-12-14T06:30:07.406Z,0
2022-12-14T06:33:07.484Z,0
2022-12-14T06:36:07.408Z,0
2022-12-14T06:39:07.377Z,0
2022-12-14T06:42:07.370Z,3
2022-12-14T06:45:07.347Z,3
2022-12-14T06:48:07.314Z,7
2022-12-14T06:51:07.382Z,10
2022-12-14T06:54:07.405Z,13
2022-12-14T06:57:07.427Z,23
2022-12-14T07:00:07.494Z,37
2022-12-14T07:03:08.292Z,50
2022-12-14T07:06:07.410Z,73
2022-12-14T07:09:07.352Z,97
2022-12-14T07:12:07.405Z,130
2022-12-14T07:15:07.348Z,170
2022-12-14T07:18:07.345Z,210
2022-12-14T07:21:07.424Z,260
2022-12-14T07:24:07.372Z,313
2022-12-14T07:27:07.433Z,370
2022-12-14T07:30:07.459Z,420
2022-12-14T07:33:07.484Z,463
2022-12-14T07:36:07.423Z,530
2022-12-14T07:39:07.362Z,623
2022-12-14T07:42:07.480Z,697
2022-12-14T07:45:07.391Z,777
2022-12-14T07:48:07.439Z,903
2022-12-14T07:51:07.356Z,1027
2022-12-14T07:54:07.381Z,1193
2022-12-14T07:57:07.412Z,1447
2022-12-14T08:00:07.482Z,1607
2022-12-14T08:03:07.403Z,1840
2022-12-14T08:06:07.494Z,1980
2022-12-14T08:09:07.427Z,2337
2022-12-14T08:12:07.688Z,2617
2022-12-14T08:15:07.422Z,2553
2022-12-14T08:18:07.539Z,2697
2022-12-14T08:21:07.433Z,2767
2022-12-14T08:24:07.355Z,2813
2022-12-14T08:27:07.835Z,2983
2022-12-14T08:30:07.514Z,3177
2022-12-14T08:33:07.361Z,3630
2022-12-14T08:36:07.415Z,4110
2022-12-14T08:39:07.456Z,4267
2022-12-14T08:42:07.450Z,4357
2022-12-14T08:45:07.387Z,4680
2022-12-14T08:48:07.357Z,4873
2022-12-14T08:51:07.489Z,4693
2022-12-14T08:54:07.448Z,4690
2022-12-14T08:57:07.377Z,4933
2022-12-14T09:00:09.838Z,4837
2022-12-14T09:03:08.062Z,4807
2022-12-14T09:06:07.502Z,4863
2022-12-14T09:09:16.260Z,5183
2022-12-14T09:12:07.611Z,5167
2022-12-14T09:15:07.449Z,5240
2022-12-14T09:18:07.490Z,5297
2022-12-14T09:21:07.418Z,5223
2022-12-14T09:24:07.471Z,5493
2022-12-14T09:27:07.392Z,5630
2022-12-14T09:30:07.555Z,5640
2022-12-14T09:33:07.414Z,5360
2022-12-14T09:36:07.389Z,5093
2022-12-14T09:39:07.441Z,5277
2022-12-14T09:42:08.133Z,4963
2022-12-14T09:45:07.602Z,4887
2022-12-14T09:48:07.348Z,4860
2022-12-14T09:51:07.801Z,5087
2022-12-14T09:54:09.657Z,5737
2022-12-14T09:57:07.406Z,5860
2022-12-14T10:00:07.618Z,5810
2022-12-14T10:03:14.724Z,5857
2022-12-14T10:06:07.368Z,5857
2022-12-14T10:09:07.469Z,5867
2022-12-14T10:12:07.420Z,5943
2022-12-14T10:15:07.431Z,6003
2022-12-14T10:18:09.067Z,5823
2022-12-14T10:21:07.339Z,6217
2022-12-14T10:24:07.450Z,6623
2022-12-14T10:27:07.399Z,6773
2022-12-14T10:30:07.578Z,6460
2022-12-14T10:33:07.351Z,6590
2022-12-14T10:36:07.439Z,6610
2022-12-14T10:39:07.359Z,6337
2022-12-14T10:42:07.510Z,6523
2022-12-14T10:45:48.510Z,6107
2022-12-14T10:48:07.414Z,5990
2022-12-14T10:51:07.667Z,6123
2022-12-14T10:54:07.368Z,6177
2022-12-14T10:57:07.702Z,5883
2022-12-14T11:00:26.533Z,5583
2022-12-14T11:03:08.074Z,5677
2022-12-14T11:06:07.429Z,5007
2022-12-14T11:09:07.421Z,4453
2022-12-14T11:12:07.885Z,4727
2022-12-14T11:15:07.491Z,3640
2022-12-14T11:18:08.459Z,4437
2022-12-14T11:21:07.422Z,9220
2022-12-14T11:24:07.471Z,9430
2022-12-14T11:27:07.640Z,13997
2022-12-14T11:30:07.453Z,9973
2022-12-14T11:33:07.385Z,23107
2022-12-14T11:36:07.455Z,22417
2022-12-14T11:39:07.404Z,20887
2022-12-14T11:42:07.481Z,20637
2022-12-14T11:45:07.361Z,20143
2022-12-14T11:48:07.398Z,19837
2022-12-14T11:51:07.435Z,19447
2022-12-14T11:54:07.440Z,19253
2022-12-14T11:57:07.474Z,19520
2022-12-14T12:00:07.483Z,5877
2022-12-14T12:03:07.796Z,4197
2022-12-14T12:06:07.485Z,4200
2022-12-14T12:09:07.534Z,4337
2022-12-14T12:12:07.377Z,4333
2022-12-14T12:15:07.538Z,4377
2022-12-14T12:18:07.418Z,4307
2022-12-14T12:21:07.413Z,4267
2022-12-14T12:24:07.507Z,4257
2022-12-14T12:27:07.405Z,4250
2022-12-14T12:30:07.555Z,4207
2022-12-14T12:33:07.517Z,4213
2022-12-14T12:36:07.433Z,4190
2022-12-14T12:39:07.438Z,4190
2022-12-14T12:42:12.315Z,4190
2022-12-14T12:45:07.480Z,4257
2022-12-14T12:48:07.829Z,4237
2022-12-14T12:51:07.418Z,4197
2022-12-14T12:54:07.403Z,4240
2022-12-14T12:57:07.464Z,4213
2022-12-14T13:00:07.627Z,4187
2022-12-14T13:03:08.181Z,4087
2022-12-14T13:06:07.462Z,3997
2022-12-14T13:09:07.401Z,3877
2022-12-14T13:12:07.385Z,3820
2022-12-14T13:15:07.533Z,3783
2022-12-14T13:18:07.452Z,3783
2022-12-14T13:21:07.384Z,3770
2022-12-14T13:24:07.354Z,3770
2022-12-14T13:27:07.585Z,3953
2022-12-14T13:30:07.502Z,3793
2022-12-14T13:33:07.400Z,3633
2022-12-14T13:36:07.538Z,3650
2022-12-14T13:39:07.636Z,3603
2022-12-14T13:42:07.460Z,3473
2022-12-14T13:45:07.459Z,3430
2022-12-14T13:48:07.950Z,3390
2022-12-14T13:51:09.465Z,3483
2022-12-14T13:54:07.495Z,8270
2022-12-14T13:57:07.378Z,8280
2022-12-14T14:00:07.673Z,7910
2022-12-14T14:03:07.998Z,7380
2022-12-14T14:06:07.410Z,6917
2022-12-14T14:09:07.445Z,6327
2022-12-14T14:12:07.372Z,5940
2022-12-14T14:15:07.441Z,5240
2022-12-14T14:18:07.396Z,4133
2022-12-14T14:21:07.465Z,4250
2022-12-14T14:24:07.537Z,2177
2022-12-14T14:27:07.434Z,2217
2022-12-14T14:30:07.532Z,1827
2022-12-14T14:33:53.322Z,1693
2022-12-14T14:36:07.485Z,1560
2022-12-14T14:39:54.497Z,1417
2022-12-14T14:42:07.431Z,1287
2022-12-14T14:45:07.382Z,1167
2022-12-14T14:48:07.415Z,1033
2022-12-14T14:51:07.449Z,913
2022-12-14T14:54:07.409Z,797
2022-12-14T14:57:07.299Z,680
2022-12-14T15:00:07.644Z,573
2022-12-14T15:03:07.762Z,467
2022-12-14T15:06:07.389Z,380
2022-12-14T15:09:07.302Z,300
2022-12-14T15:12:07.408Z,230
2022-12-14T15:15:07.440Z,173
2022-12-14T15:18:07.365Z,127
2022-12-14T15:21:07.369Z,90
2022-12-14T15:24:07.397Z,60
2022-12-14T15:27:07.360Z,40
2022-12-14T15:30:07.545Z,23
2022-12-14T15:33:07.346Z,17
2022-12-14T15:36:07.270Z,10
2022-12-14T15:39:07.421Z,7
2022-12-14T15:42:07.402Z,3
2022-12-14T15:45:07.342Z,3
2022-12-14T15:48:07.416Z,0
2022-12-14T15:51:07.341Z,0
2022-12-14T15:54:07.374Z,0
2022-12-14T15:57:07.348Z,0
2022-12-14T16:00:07.343Z,0
2022-12-14T16:03:07.758Z,0
2022-12-14T16:06:07.515Z,0
2022-12-14T16:09:07.376Z,0
2022-12-14T16:12:07.355Z,0
2022-12-14T16:15:07.365Z,0
2022-12-14T16:18:10.137Z,0
2022-12-14T16:21:07.386Z,0
2022-12-14T16:24:07.366Z,0
2022-12-14T16:27:07.341Z,0
2022-12-14T16:30:07.350Z,0
2022-12-14T16:33:07.362Z,0
2022-12-14T16:36:07.367Z,0
2022-12-14T16:39:07.365Z,0
2022-12-14T16:42:07.268Z,0
2022-12-14T16:45:07.413Z,0
2022-12-14T16:48:07.379Z,0
2022-12-14T16:52:05.449Z,0
2022-12-14T16:54:07.418Z,0
2022-12-14T16:57:07.398Z,0
2022-12-14T17:00:07.510Z,0
2022-12-14T17:03:08.245Z,0
2022-12-14T17:06:07.335Z,0
2022-12-14T17:09:07.324Z,0
2022-12-14T17:12:07.344Z,0
2022-12-14T17:15:07.451Z,0
2022-12-14T17:18:07.397Z,0
2022-12-14T17:21:07.320Z,0
2022-12-14T17:24:07.395Z,0
2022-12-14T17:27:07.415Z,0
2022-12-14T17:30:07.437Z,0
2022-12-14T17:33:07.376Z,0
2022-12-14T17:36:07.381Z,0
2022-12-14T17:39:07.383Z,0
2022-12-14T17:42:07.423Z,0
2022-12-14T17:45:07.417Z,0
2022-12-14T17:48:07.285Z,0
2022-12-14T17:51:07.340Z,0
2022-12-14T17:54:07.490Z,0
2022-12-14T17:57:07.329Z,0
2022-12-14T18:00:07.361Z,0
2022-12-14T18:03:09.038Z,0
2022-12-14T18:06:07.470Z,0
2022-12-14T18:09:07.314Z,0
2022-12-14T18:12:30.980Z,0
2022-12-14T18:15:07.468Z,0
2022-12-14T18:18:07.341Z,0
2022-12-14T18:21:07.405Z,0
2022-12-14T18:24:15.258Z,0
2022-12-14T18:27:07.502Z,0
2022-12-14T18:30:07.451Z,0
2022-12-14T18:33:07.650Z,0
2022-12-14T18:36:07.386Z,0
2022-12-14T18:39:07.497Z,0
2022-12-14T18:42:07.371Z,0
2022-12-14T18:45:07.398Z,0
2022-12-14T18:48:07.406Z,0
2022-12-14T18:51:07.350Z,0
2022-12-14T18:54:07.433Z,0
2022-12-14T18:57:07.374Z,0
2022-12-14T19:00:07.421Z,0
2022-12-14T19:03:08.668Z,0
2022-12-14T19:06:50.739Z,0
2022-12-14T19:09:07.347Z,0
2022-12-14T19:12:07.315Z,0
2022-12-14T19:15:07.359Z,0
2022-12-14T19:18:07.428Z,0
2022-12-14T19:21:07.272Z,0
2022-12-14T19:24:07.403Z,0
2022-12-14T19:27:07.356Z,0
2022-12-14T19:30:07.629Z,0
2022-12-14T19:36:07.389Z,0
2022-12-14T19:39:07.480Z,0
2022-12-14T19:42:07.327Z,0
2022-12-14T19:45:07.419Z,0
2022-12-14T19:48:13.765Z,0
2022-12-14T19:51:07.349Z,0
2022-12-14T19:54:07.276Z,0
2022-12-14T19:57:07.380Z,0
2022-12-14T20:00:07.387Z,0
2022-12-14T20:03:08.580Z,0
2022-12-14T20:06:07.374Z,0
2022-12-14T20:09:07.361Z,0
2022-12-14T20:12:08.180Z,0
2022-12-14T20:15:07.382Z,0
2022-12-14T20:18:07.386Z,0
2022-12-14T20:21:07.402Z,0
2022-12-14T20:24:07.490Z,0
2022-12-14T20:27:07.385Z,0
2022-12-14T20:30:07.394Z,0
2022-12-14T20:33:07.406Z,0
2022-12-14T20:36:07.445Z,0
2022-12-14T20:39:07.449Z,0
2022-12-14T20:42:07.281Z,0
2022-12-14T20:45:14.079Z,0
2022-12-14T20:48:07.373Z,0
2022-12-14T20:51:07.329Z,0
2022-12-14T20:54:07.370Z,0
2022-12-14T20:57:07.348Z,0
2022-12-14T21:00:07.406Z,0
2022-12-14T21:03:08.162Z,0
2022-12-14T21:06:07.391Z,0
2022-12-14T21:09:07.576Z,0
2022-12-14T21:12:07.464Z,0
2022-12-14T21:15:07.432Z,0
2022-12-14T21:18:07.439Z,0
2022-12-14T21:21:07.334Z,0
2022-12-14T21:24:07.488Z,0
2022-12-14T21:27:07.367Z,0
2022-12-14T21:30:07.788Z,0
2022-12-14T21:33:07.376Z,0
2022-12-14T21:36:07.444Z,0
2022-12-14T21:39:07.472Z,0
2022-12-14T21:42:07.320Z,0
2022-12-14T21:45:09.164Z,0
2022-12-14T21:48:07.371Z,0
2022-12-14T21:51:07.411Z,0
2022-12-14T21:54:07.388Z,0
2022-12-14T21:57:07.309Z,0
2022-12-14T22:00:07.365Z,0
2022-12-14T22:03:07.925Z,0
2022-12-14T22:06:07.385Z,0
2022-12-14T22:09:07.403Z,0
2022-12-14T22:12:07.321Z,0
2022-12-14T22:15:07.372Z,0
2022-12-14T22:18:07.398Z,0
2022-12-14T22:21:07.343Z,0
2022-12-14T22:24:07.436Z,0
2022-12-14T22:27:07.387Z,0
2022-12-14T22:30:07.353Z,0
2022-12-14T22:33:07.328Z,0
2022-12-14T22:36:07.300Z,0
2022-12-14T22:39:07.378Z,0
2022-12-14T22:42:07.321Z,0
2022-12-14T22:45:07.414Z,0
2022-12-14T22:48:07.347Z,0
2022-12-14T22:51:07.374Z,0
2022-12-14T22:54:07.348Z,0
2022-12-14T22:57:07.327Z,0
2022-12-14T23:00:07.805Z,0
2022-12-14T23:03:08.079Z,0
2022-12-14T23:06:09.124Z,0
2022-12-14T23:09:07.355Z,0
2022-12-14T23:12:11.679Z,0
2022-12-14T23:15:07.309Z,0
2022-12-14T23:18:07.357Z,0
2022-12-14T23:21:07.307Z,0
2022-12-14T23:24:07.355Z,0
2022-12-14T23:27:16.445Z,0
2022-12-14T23:30:07.575Z,0
2022-12-14T23:33:07.329Z,0
2022-12-14T23:36:07.339Z,0
2022-12-14T23:39:07.356Z,0
2022-12-14T23:42:07.428Z,0
2022-12-14T23:45:07.331Z,0
2022-12-14T23:48:07.340Z,0
2022-12-14T23:51:07.330Z,0
2022-12-14T23:54:07.386Z,0
2022-12-14T23:57:07.327Z,0
